createdAt,value
2023-04-10T00:04:22.269Z,84.74
2023-04-10T00:09:24.061Z,84.47
2023-04-10T00:14:25.884Z,84.42
2023-04-10T00:19:27.546Z,84.52
2023-04-10T00:24:29.150Z,84.73
2023-04-10T00:29:30.851Z,84.84
2023-04-10T00:34:32.553Z,85.34
2023-04-10T00:39:34.650Z,84.97
2023-04-10T00:44:37.740Z,85.40
2023-04-10T00:49:39.467Z,85.36
2023-04-10T00:54:41.421Z,85.68
2023-04-10T00:59:43.478Z,85.43
2023-04-10T01:04:45.140Z,86.27
2023-04-10T01:09:59.923Z,86.51
2023-04-10T01:15:04.116Z,86.22
2023-04-10T01:20:16.509Z,86.69
2023-04-10T01:25:34.947Z,87.30
2023-04-10T01:30:37.364Z,87.25
2023-04-10T01:35:40.967Z,87.26
2023-04-10T01:40:48.993Z,86.69
2023-04-10T01:45:54.161Z,87.56
2023-04-10T01:50:56.295Z,88.19
2023-04-10T01:55:58.445Z,89.11
2023-04-10T02:01:01.596Z,89.17
2023-04-10T02:06:17.798Z,89.87
2023-04-10T02:11:25.434Z,91.50
2023-04-10T02:16:27.893Z,91.29
2023-04-10T02:21:29.744Z,91.63
2023-04-10T02:26:31.387Z,90.83
2023-04-10T02:31:33.102Z,89.67
2023-04-10T02:36:38.686Z,88.92
2023-04-10T02:41:42.182Z,88.63
2023-04-10T02:46:47.197Z,88.73
2023-04-10T02:51:49.768Z,88.50
2023-04-10T02:56:51.419Z,88.66
2023-04-10T03:01:53.151Z,88.61
2023-04-10T03:06:55.893Z,87.95
2023-04-10T03:11:58.796Z,87.26
2023-04-10T03:17:00.641Z,87.53
2023-04-10T03:22:03.649Z,87.47
2023-04-10T03:27:05.492Z,86.82
2023-04-10T03:32:08.735Z,86.62
2023-04-10T03:37:12.089Z,86.24
2023-04-10T03:42:13.831Z,86.50
2023-04-10T03:47:16.289Z,86.35
2023-04-10T03:52:23.521Z,86.38
2023-04-10T03:57:25.688Z,86.09
2023-04-10T04:02:31.838Z,85.74
2023-04-10T04:07:33.764Z,86.58
2023-04-10T04:12:45.532Z,86.62
2023-04-10T04:18:13.395Z,87.00
2023-04-10T04:23:18.828Z,87.32
2023-04-10T04:28:43.501Z,87.48
2023-04-10T04:34:23.620Z,87.01
2023-04-10T04:39:45.832Z,86.64
2023-04-10T04:45:10.822Z,86.46
2023-04-10T04:50:12.503Z,86.65
2023-04-10T04:55:29.090Z,86.68
2023-04-10T05:00:38.564Z,86.38
2023-04-10T05:05:56.846Z,85.90
2023-04-10T05:11:16.921Z,86.07
2023-04-10T05:16:27.545Z,85.46
2023-04-10T05:21:36.463Z,84.92
2023-04-10T05:26:57.798Z,84.58
2023-04-10T05:32:18.303Z,84.73
2023-04-10T05:37:46.013Z,83.02
2023-04-10T05:43:16.721Z,82.69
2023-04-10T05:48:34.913Z,80.90
2023-04-10T05:53:52.996Z,79.88
2023-04-10T05:59:14.223Z,76.64
2023-04-10T06:04:36.289Z,72.86
2023-04-10T06:09:38.294Z,69.41
2023-04-10T06:14:44.532Z,68.34
2023-04-10T06:19:47.680Z,66.14
2023-04-10T06:24:49.383Z,62.17
2023-04-10T06:29:51.149Z,61.70
2023-04-10T06:34:56.510Z,63.10
2023-04-10T06:40:09.392Z,65.91
2023-04-10T06:45:11.597Z,64.01
2023-04-10T06:50:13.199Z,61.96
2023-04-10T06:55:14.810Z,60.40
2023-04-10T07:00:16.843Z,60.66
2023-04-10T07:05:18.649Z,61.41
2023-04-10T07:10:20.306Z,58.97
2023-04-10T07:15:21.920Z,61.88
2023-04-10T07:20:23.615Z,62.31
2023-04-10T07:25:25.386Z,61.44
2023-04-10T07:30:27.026Z,58.82
2023-04-10T07:35:28.684Z,57.76
2023-04-10T07:40:30.398Z,59.76
2023-04-10T07:45:32.739Z,60.92
2023-04-10T07:50:34.365Z,62.61
2023-04-10T07:55:43.187Z,62.72
2023-04-10T08:00:45.016Z,62.33
2023-04-10T08:05:46.704Z,61.03
2023-04-10T08:10:48.788Z,60.57
2023-04-10T08:15:50.646Z,60.33
2023-04-10T08:20:52.270Z,60.78
2023-04-10T08:25:53.896Z,59.41
2023-04-10T08:30:55.708Z,58.94
2023-04-10T08:35:57.633Z,59.88
2023-04-10T08:40:59.300Z,59.44
2023-04-10T08:46:02.245Z,60.42
2023-04-10T08:51:06.093Z,59.50
2023-04-10T08:56:08.289Z,58.83
2023-04-10T09:01:13.594Z,59.81
2023-04-10T09:06:15.269Z,59.09
2023-04-10T09:11:16.967Z,59.20
2023-04-10T09:16:28.789Z,60.05
2023-04-10T09:21:31.370Z,58.50
2023-04-10T09:26:33.662Z,57.42
2023-04-10T09:31:37.480Z,56.22
2023-04-10T09:36:41.711Z,56.22
2023-04-10T09:41:55.381Z,54.55
2023-04-10T09:47:15.428Z,53.63
2023-04-10T09:52:44.287Z,53.64
2023-04-10T09:57:46.488Z,54.30
2023-04-10T10:02:48.932Z,51.44
2023-04-10T10:07:50.794Z,52.77
2023-04-10T10:12:55.918Z,52.26
2023-04-10T10:18:04.452Z,52.76
2023-04-10T10:23:07.708Z,53.27
2023-04-10T10:28:13.172Z,51.04
2023-04-10T10:33:15.082Z,52.17
2023-04-10T10:38:16.840Z,53.14
2023-04-10T10:43:26.079Z,52.20
2023-04-10T10:48:28.184Z,52.11
2023-04-10T10:53:43.376Z,51.47
2023-04-10T10:58:52.266Z,50.98
2023-04-10T11:03:54.299Z,50.30
2023-04-10T11:08:57.086Z,49.85
2023-04-10T11:14:01.397Z,49.92
2023-04-10T11:19:13.363Z,48.89
2023-04-10T11:24:34.087Z,47.96
2023-04-10T11:29:39.290Z,48.91
2023-04-10T11:34:45.102Z,47.90
2023-04-10T11:40:03.717Z,49.10
2023-04-10T11:45:26.152Z,47.13
2023-04-10T11:50:29.680Z,45.11
2023-04-10T11:55:39.073Z,44.34
2023-04-10T12:00:40.850Z,46.34
2023-04-10T12:05:47.176Z,46.87
2023-04-10T12:10:49.051Z,43.51
2023-04-10T12:15:51.068Z,42.30
2023-04-10T12:20:56.289Z,43.07
2023-04-10T12:26:17.420Z,43.44
2023-04-10T12:31:19.533Z,42.79
2023-04-10T12:36:22.765Z,41.41
2023-04-10T12:41:30.513Z,41.54
2023-04-10T12:46:32.390Z,42.52
2023-04-10T12:51:49.117Z,40.61
2023-04-10T12:56:51.461Z,40.16
2023-04-10T13:01:53.819Z,38.20
2023-04-10T13:06:55.670Z,38.90
2023-04-10T13:11:57.723Z,37.80
2023-04-10T13:16:59.368Z,36.57
2023-04-10T13:22:02.031Z,38.83
2023-04-10T13:27:03.989Z,39.90
2023-04-10T13:32:06.066Z,38.58
2023-04-10T13:37:07.819Z,40.06
2023-04-10T13:42:09.987Z,41.05
2023-04-10T13:47:11.729Z,37.94
2023-04-10T13:52:13.612Z,38.57
2023-04-10T13:57:15.381Z,39.44
2023-04-10T14:02:17.217Z,39.03
2023-04-10T14:07:19.909Z,37.20
2023-04-10T14:12:23.210Z,38.59
2023-04-10T14:17:25.499Z,39.55
2023-04-10T14:22:27.202Z,38.90
2023-04-10T14:27:28.855Z,38.63
2023-04-10T14:32:30.963Z,36.93
2023-04-10T14:37:32.736Z,37.63
2023-04-10T14:42:34.465Z,37.60
2023-04-10T14:47:36.417Z,37.83
2023-04-10T14:52:38.193Z,37.36
2023-04-10T14:57:39.881Z,37.89
2023-04-10T15:02:42.183Z,38.08
2023-04-10T15:07:44.394Z,38.97
2023-04-10T15:12:46.193Z,40.12
2023-04-10T15:17:48.281Z,39.00
2023-04-10T15:22:49.965Z,40.13
2023-04-10T15:27:51.684Z,40.37
2023-04-10T15:32:53.446Z,40.17
2023-04-10T15:37:55.441Z,39.76
2023-04-10T15:42:57.144Z,40.39
2023-04-10T15:48:01.177Z,40.48
2023-04-10T15:53:03.060Z,39.58
2023-04-10T15:58:04.720Z,40.30
2023-04-10T16:03:06.642Z,39.90
2023-04-10T16:08:08.454Z,40.33
2023-04-10T16:13:10.107Z,40.43
2023-04-10T16:18:11.854Z,41.21
2023-04-10T16:23:13.447Z,41.08
2023-04-10T16:28:15.229Z,41.04
2023-04-10T16:33:16.858Z,42.19
2023-04-10T16:38:18.535Z,42.28
2023-04-10T16:43:20.242Z,42.32
2023-04-10T16:48:21.989Z,42.41
2023-04-10T16:53:23.616Z,42.86
2023-04-10T16:58:25.907Z,42.53
2023-04-10T17:03:27.642Z,41.98
2023-04-10T17:08:29.529Z,42.65
2023-04-10T17:13:31.274Z,42.69
2023-04-10T17:18:32.902Z,43.00
2023-04-10T17:23:34.535Z,43.11
2023-04-10T17:28:36.766Z,43.30
2023-04-10T17:33:39.171Z,43.98
2023-04-10T17:38:42.013Z,44.95
2023-04-10T17:43:43.746Z,45.48
2023-04-10T17:48:45.715Z,45.85
2023-04-10T17:53:47.456Z,45.79
2023-04-10T17:58:49.259Z,45.67
2023-04-10T18:03:51.133Z,46.60
2023-04-10T18:08:53.224Z,46.86
2023-04-10T18:13:55.262Z,47.43
2023-04-10T18:18:57.014Z,47.79
2023-04-10T18:23:58.862Z,47.40
2023-04-10T18:29:00.783Z,47.64
2023-04-10T18:34:07.574Z,47.53
2023-04-10T18:39:10.811Z,47.98
2023-04-10T18:44:12.634Z,48.83
2023-04-10T18:49:14.351Z,49.19
2023-04-10T18:54:15.961Z,49.13
2023-04-10T18:59:17.605Z,49.65
2023-04-10T19:04:19.388Z,49.94
2023-04-10T19:09:21.578Z,50.71
2023-04-10T19:14:23.282Z,50.38
2023-04-10T19:19:24.892Z,51.37
2023-04-10T19:24:27.135Z,51.36
2023-04-10T19:29:31.540Z,51.99
2023-04-10T19:34:33.206Z,52.76
2023-04-10T19:39:34.961Z,52.74
2023-04-10T19:44:37.140Z,53.24
2023-04-10T19:49:38.895Z,53.52
2023-04-10T19:54:40.648Z,54.40
2023-04-10T19:59:42.278Z,55.12
2023-04-10T20:04:45.708Z,55.62
2023-04-10T20:09:49.807Z,56.77
2023-04-10T20:14:51.444Z,56.57
2023-04-10T20:19:53.055Z,57.27
2023-04-10T20:24:56.217Z,57.94
2023-04-10T20:29:57.948Z,58.01
2023-04-10T20:35:02.117Z,57.71
2023-04-10T20:40:05.917Z,57.73
2023-04-10T20:45:08.110Z,57.82
2023-04-10T20:50:13.039Z,58.33
2023-04-10T20:55:17.492Z,58.37
2023-04-10T21:00:22.217Z,58.80
2023-04-10T21:05:23.844Z,59.63
2023-04-10T21:10:27.069Z,59.58
2023-04-10T21:15:34.795Z,59.72
2023-04-10T21:20:37.705Z,60.36
2023-04-10T21:25:39.353Z,60.42
2023-04-10T21:30:41.033Z,61.13
2023-04-10T21:35:46.487Z,61.58
2023-04-10T21:41:03.874Z,61.14
2023-04-10T21:46:06.406Z,60.91
2023-04-10T21:51:08.154Z,60.67
2023-04-10T21:56:09.836Z,60.20
2023-04-10T22:01:12.535Z,60.22
2023-04-10T22:06:14.427Z,60.29
2023-04-10T22:11:16.162Z,60.22
2023-04-10T22:16:17.816Z,60.35
2023-04-10T22:21:19.472Z,61.25
2023-04-10T22:26:21.281Z,60.16
2023-04-10T22:31:23.152Z,59.31
2023-04-10T22:36:29.165Z,58.34
2023-04-10T22:41:31.806Z,58.36
2023-04-10T22:46:34.116Z,58.73
2023-04-10T22:51:35.887Z,59.28
2023-04-10T22:56:37.535Z,59.59
2023-04-10T23:01:39.221Z,59.74
2023-04-10T23:06:40.952Z,59.31
2023-04-10T23:11:43.095Z,59.44
2023-04-10T23:16:47.816Z,58.94
2023-04-10T23:21:50.035Z,58.99
2023-04-10T23:26:51.664Z,58.72
2023-04-10T23:31:53.298Z,58.59
2023-04-10T23:36:55.801Z,57.35
2023-04-10T23:41:57.563Z,57.57
2023-04-10T23:46:59.436Z,57.84
2023-04-10T23:52:01.090Z,58.35
2023-04-10T23:57:02.728Z,58.21
